createdAt,value
2023-04-16T00:02:08.994Z,4.63
2023-04-16T00:04:35.759Z,9.38
2023-04-16T00:07:02.550Z,11.70
2023-04-16T00:09:29.184Z,10.10
2023-04-16T00:11:56.236Z,7.90
2023-04-16T00:14:22.855Z,11.60
2023-04-16T00:16:49.746Z,5.93
2023-04-16T00:19:16.316Z,8.18
2023-04-16T00:21:42.941Z,9.13
2023-04-16T00:24:11.516Z,8.75
2023-04-16T00:26:38.105Z,13.60
2023-04-16T00:29:05.045Z,16.33
2023-04-16T00:31:33.796Z,10.93
2023-04-16T00:34:13.805Z,10.27
2023-04-16T00:36:40.566Z,9.65
2023-04-16T00:39:07.367Z,11.32
2023-04-16T00:41:39.138Z,14.25
2023-04-16T00:44:05.880Z,11.15
2023-04-16T00:46:33.038Z,8.27
2023-04-16T00:49:01.422Z,12.68
2023-04-16T00:51:28.352Z,7.57
2023-04-16T00:53:55.222Z,14.20
2023-04-16T00:56:24.229Z,13.35
2023-04-16T00:58:51.082Z,11.38
2023-04-16T01:01:17.730Z,14.75
2023-04-16T01:03:49.571Z,14.15
2023-04-16T01:06:18.127Z,10.30
2023-04-16T01:08:45.205Z,8.23
2023-04-16T01:11:12.225Z,10.32
2023-04-16T01:13:39.777Z,6.88
2023-04-16T01:16:08.284Z,6.22
2023-04-16T01:18:35.760Z,12.30
2023-04-16T01:21:02.939Z,9.95
2023-04-16T01:23:29.767Z,11.23
2023-04-16T01:25:57.772Z,10.77
2023-04-16T01:28:27.168Z,6.43
2023-04-16T01:30:53.820Z,11.65
2023-04-16T01:33:21.544Z,9.13
2023-04-16T01:35:50.219Z,10.95
2023-04-16T01:38:17.256Z,14.05
2023-04-16T01:40:43.844Z,10.15
2023-04-16T01:43:10.586Z,10.55
2023-04-16T01:45:37.240Z,10.38
2023-04-16T01:48:04.329Z,9.20
2023-04-16T01:50:31.413Z,14.40
2023-04-16T01:52:58.177Z,9.27
2023-04-16T01:55:27.797Z,19.77
2023-04-16T01:57:54.396Z,13.55
2023-04-16T02:00:21.202Z,9.30
2023-04-16T02:02:49.460Z,12.50
2023-04-16T02:05:16.471Z,9.48
2023-04-16T02:07:43.170Z,10.10
2023-04-16T02:10:10.379Z,13.20
2023-04-16T02:12:37.025Z,8.10
2023-04-16T02:15:03.801Z,11.02
2023-04-16T02:17:30.680Z,11.70
2023-04-16T02:19:57.316Z,6.72
2023-04-16T02:22:23.946Z,15.13
2023-04-16T02:24:51.225Z,14.25
2023-04-16T02:27:17.791Z,17.85
2023-04-16T02:29:44.460Z,12.80
2023-04-16T02:32:11.232Z,13.80
2023-04-16T02:34:40.298Z,10.50
2023-04-16T02:37:06.905Z,11.80
2023-04-16T02:39:33.596Z,7.68
2023-04-16T02:42:01.519Z,7.82
2023-04-16T02:44:28.205Z,11.40
2023-04-16T02:46:54.786Z,10.40
2023-04-16T02:49:21.402Z,10.07
2023-04-16T02:51:47.981Z,8.38
2023-04-16T02:54:14.552Z,13.70
2023-04-16T02:56:41.171Z,10.45
2023-04-16T02:59:08.070Z,10.35
2023-04-16T03:01:34.912Z,8.93
2023-04-16T03:04:01.845Z,8.70
2023-04-16T03:06:28.769Z,12.65
2023-04-16T03:08:55.394Z,7.03
2023-04-16T03:11:21.999Z,11.30
2023-04-16T03:13:48.646Z,6.88
2023-04-16T03:16:15.634Z,11.32
2023-04-16T03:18:42.420Z,8.88
2023-04-16T03:21:09.087Z,12.73
2023-04-16T03:23:36.467Z,10.25
2023-04-16T03:26:03.094Z,8.85
2023-04-16T03:28:29.785Z,9.35
2023-04-16T03:30:56.534Z,7.32
2023-04-16T03:33:23.261Z,9.88
2023-04-16T03:35:57.452Z,13.07
2023-04-16T03:38:26.089Z,12.45
2023-04-16T03:40:52.676Z,9.07
2023-04-16T03:43:19.528Z,10.38
2023-04-16T03:45:46.849Z,14.35
2023-04-16T03:48:13.651Z,15.02
2023-04-16T03:50:40.499Z,8.20
2023-04-16T03:53:07.153Z,8.85
2023-04-16T03:55:34.795Z,15.18
2023-04-16T03:58:03.190Z,11.82
2023-04-16T04:00:30.633Z,13.57
2023-04-16T04:02:57.594Z,10.95
2023-04-16T04:05:24.493Z,8.02
2023-04-16T04:07:51.266Z,6.18
2023-04-16T04:10:17.993Z,15.98
2023-04-16T04:12:44.901Z,9.57
2023-04-16T04:15:12.004Z,10.02
2023-04-16T04:17:38.730Z,9.88
2023-04-16T04:20:06.397Z,12.68
2023-04-16T04:22:33.169Z,12.48
2023-04-16T04:24:59.788Z,9.82
2023-04-16T04:27:26.421Z,17.40
2023-04-16T04:29:53.538Z,11.77
2023-04-16T04:32:20.175Z,10.30
2023-04-16T04:34:46.820Z,15.05
2023-04-16T04:37:13.465Z,10.55
2023-04-16T04:39:40.472Z,11.20
2023-04-16T04:42:07.156Z,8.55
2023-04-16T04:44:33.795Z,10.15
2023-04-16T04:47:00.413Z,11.68
2023-04-16T04:49:27.067Z,11.07
2023-04-16T04:51:53.692Z,13.77
2023-04-16T04:54:20.584Z,19.50
2023-04-16T04:56:47.416Z,15.07
2023-04-16T04:59:14.030Z,12.23
2023-04-16T05:01:40.828Z,8.95
2023-04-16T05:04:07.652Z,8.35
2023-04-16T05:06:34.321Z,8.05
2023-04-16T05:09:01.085Z,12.77
2023-04-16T05:11:27.905Z,6.65
2023-04-16T05:13:54.504Z,10.77
2023-04-16T05:16:21.226Z,8.10
2023-04-16T05:18:47.893Z,9.85
2023-04-16T05:21:14.485Z,10.32
2023-04-16T05:23:41.620Z,8.25
2023-04-16T05:26:08.263Z,12.57
2023-04-16T05:28:34.894Z,11.07
2023-04-16T05:31:01.561Z,8.15
2023-04-16T05:33:28.174Z,9.40
2023-04-16T05:35:54.828Z,7.78
2023-04-16T05:38:21.404Z,11.55
2023-04-16T05:40:48.065Z,11.65
2023-04-16T05:43:14.656Z,14.02
2023-04-16T05:45:41.500Z,10.60
2023-04-16T05:48:11.867Z,10.52
2023-04-16T05:50:38.533Z,14.25
2023-04-16T05:53:07.394Z,11.27
2023-04-16T05:55:35.600Z,12.10
2023-04-16T05:58:04.410Z,12.82
2023-04-16T06:00:34.458Z,11.45
2023-04-16T06:03:01.372Z,8.98
2023-04-16T06:05:29.577Z,10.02
2023-04-16T06:07:56.614Z,11.55
2023-04-16T06:10:23.449Z,11.48
2023-04-16T06:12:50.074Z,7.60
2023-04-16T06:15:16.785Z,10.30
2023-04-16T06:17:43.478Z,11.00
2023-04-16T06:20:10.945Z,11.07
2023-04-16T06:22:37.822Z,11.85
2023-04-16T06:25:04.744Z,11.32
2023-04-16T06:27:31.552Z,13.45
2023-04-16T06:29:58.573Z,14.40
2023-04-16T06:32:25.561Z,16.63
2023-04-16T06:34:52.264Z,15.43
2023-04-16T06:37:18.954Z,13.13
2023-04-16T06:39:45.842Z,19.83
2023-04-16T06:42:12.625Z,17.52
2023-04-16T06:44:39.317Z,13.43
2023-04-16T06:47:06.209Z,19.48
2023-04-16T06:49:32.856Z,15.55
2023-04-16T06:51:59.552Z,16.00
2023-04-16T06:54:26.183Z,13.50
2023-04-16T06:56:52.817Z,17.10
2023-04-16T06:59:19.496Z,16.48
2023-04-16T07:01:46.825Z,18.83
2023-04-16T07:04:13.537Z,15.48
2023-04-16T07:06:40.373Z,19.33
2023-04-16T07:09:07.133Z,15.48
2023-04-16T07:11:34.439Z,15.18
2023-04-16T07:14:01.244Z,15.93
2023-04-16T07:16:27.931Z,19.60
2023-04-16T07:18:54.517Z,22.02
2023-04-16T07:21:22.204Z,20.15
2023-04-16T07:23:48.803Z,20.48
2023-04-16T07:26:15.474Z,20.42
2023-04-16T07:28:42.114Z,21.02
2023-04-16T07:31:09.364Z,20.73
2023-04-16T07:33:36.055Z,15.30
2023-04-16T07:36:02.966Z,18.05
2023-04-16T07:38:29.689Z,22.25
2023-04-16T07:40:57.060Z,16.15
2023-04-16T07:43:23.873Z,17.40
2023-04-16T07:45:50.868Z,23.08
2023-04-16T07:48:18.299Z,17.02
2023-04-16T07:50:45.150Z,23.67
2023-04-16T07:53:12.253Z,26.05
2023-04-16T07:55:39.075Z,22.33
2023-04-16T07:58:07.430Z,23.17
2023-04-16T08:00:34.176Z,24.40
2023-04-16T08:03:01.338Z,22.77
2023-04-16T08:05:28.150Z,21.58
2023-04-16T08:07:54.946Z,20.60
2023-04-16T08:10:21.677Z,23.42
2023-04-16T08:12:48.381Z,22.30
2023-04-16T08:15:15.291Z,17.25
2023-04-16T08:17:42.238Z,22.58
2023-04-16T08:20:11.242Z,26.27
2023-04-16T08:22:39.650Z,18.92
2023-04-16T08:25:07.002Z,28.15
2023-04-16T08:27:33.801Z,21.23
2023-04-16T08:30:03.621Z,26.55
2023-04-16T08:32:30.582Z,23.80
2023-04-16T08:35:00.237Z,27.67
2023-04-16T08:37:27.083Z,22.92
2023-04-16T08:39:53.989Z,21.70
2023-04-16T08:42:41.767Z,22.50
2023-04-16T08:45:17.334Z,22.42
2023-04-16T08:47:52.446Z,21.42
2023-04-16T08:50:26.889Z,24.00
2023-04-16T08:52:59.535Z,26.23
2023-04-16T08:55:50.587Z,26.90
2023-04-16T08:58:28.175Z,25.95
2023-04-16T09:00:56.350Z,25.80
2023-04-16T09:03:35.662Z,27.70
2023-04-16T09:06:04.503Z,26.33
2023-04-16T09:08:32.342Z,23.77
2023-04-16T09:10:59.670Z,28.60
2023-04-16T09:13:26.850Z,30.77
2023-04-16T09:15:54.322Z,26.08
2023-04-16T09:18:21.506Z,24.75
2023-04-16T09:20:49.723Z,26.80
2023-04-16T09:23:16.423Z,23.05
2023-04-16T09:25:43.198Z,27.23
2023-04-16T09:28:11.160Z,25.83
2023-04-16T09:30:41.161Z,26.38
2023-04-16T09:33:24.508Z,35.47
2023-04-16T09:35:53.327Z,31.98
2023-04-16T09:38:20.832Z,23.50
2023-04-16T09:41:05.930Z,34.28
2023-04-16T09:43:32.670Z,22.88
2023-04-16T09:45:59.345Z,26.23
2023-04-16T09:48:30.126Z,29.27
2023-04-16T09:50:57.239Z,25.35
2023-04-16T09:53:26.698Z,23.13
2023-04-16T09:56:06.681Z,24.52
2023-04-16T09:58:43.399Z,23.17
2023-04-16T10:01:12.440Z,21.27
2023-04-16T10:03:41.004Z,21.38
2023-04-16T10:06:16.588Z,24.23
2023-04-16T10:08:49.608Z,31.60
2023-04-16T10:14:03.177Z,30.75
2023-04-16T10:16:30.894Z,32.53
2023-04-16T10:19:03.113Z,31.98
2023-04-16T10:21:34.279Z,31.50
2023-04-16T10:24:04.759Z,33.05
2023-04-16T10:26:36.134Z,25.23
2023-04-16T10:29:03.055Z,29.30
2023-04-16T10:31:30.515Z,24.77
2023-04-16T10:33:59.024Z,20.75
2023-04-16T10:36:29.069Z,27.70
2023-04-16T10:39:06.564Z,27.40
2023-04-16T10:41:36.785Z,30.60
2023-04-16T10:44:10.060Z,29.67
2023-04-16T10:46:41.647Z,28.17
2023-04-16T10:49:19.328Z,27.10
2023-04-16T10:52:08.196Z,28.83
2023-04-16T10:54:36.745Z,25.98
2023-04-16T10:57:05.044Z,32.03
2023-04-16T11:01:10.833Z,25.50
2023-04-16T11:03:43.633Z,22.98
2023-04-16T11:06:52.669Z,29.67
2023-04-16T11:10:09.247Z,30.42
2023-04-16T11:12:57.360Z,23.73
2023-04-16T11:15:28.505Z,27.48
2023-04-16T11:18:07.800Z,25.55
2023-04-16T11:21:30.574Z,29.02
2023-04-16T11:24:04.896Z,25.02
2023-04-16T11:26:44.555Z,26.48
2023-04-16T11:29:27.659Z,29.95
2023-04-16T11:31:58.594Z,28.20
2023-04-16T11:34:39.647Z,24.88
2023-04-16T11:37:06.864Z,22.83
2023-04-16T11:39:39.748Z,26.48
2023-04-16T11:42:13.086Z,27.65
2023-04-16T11:44:47.012Z,21.15
2023-04-16T11:47:16.651Z,23.13
2023-04-16T11:49:43.865Z,22.85
2023-04-16T11:52:11.578Z,30.88
2023-04-16T11:54:41.837Z,22.02
2023-04-16T11:57:14.565Z,24.65
2023-04-16T12:00:03.986Z,25.53
2023-04-16T12:02:46.279Z,21.17
2023-04-16T12:05:37.653Z,24.60
2023-04-16T12:08:20.048Z,20.88
2023-04-16T12:10:56.953Z,26.38
2023-04-16T12:13:31.110Z,21.30
2023-04-16T12:16:02.093Z,23.42
2023-04-16T12:18:29.091Z,28.33
2023-04-16T12:20:56.100Z,26.52
2023-04-16T12:23:32.409Z,22.88
2023-04-16T12:26:10.840Z,23.20
2023-04-16T12:28:43.027Z,27.25
2023-04-16T12:31:20.520Z,28.77
2023-04-16T12:34:02.875Z,28.58
2023-04-16T12:36:29.743Z,23.98
2023-04-16T12:39:06.181Z,29.73
2023-04-16T12:41:39.486Z,24.77
2023-04-16T12:44:12.197Z,27.83
2023-04-16T12:46:40.505Z,27.93
2023-04-16T12:49:08.953Z,24.38
2023-04-16T12:51:37.113Z,24.27
2023-04-16T12:54:05.844Z,25.23
2023-04-16T12:56:33.383Z,24.48
2023-04-16T12:59:00.194Z,23.90
2023-04-16T13:01:26.867Z,29.08
2023-04-16T13:03:53.788Z,23.05
2023-04-16T13:06:21.145Z,28.35
2023-04-16T13:08:47.782Z,27.70
2023-04-16T13:11:14.741Z,23.65
2023-04-16T13:13:41.398Z,23.02
2023-04-16T13:16:11.443Z,25.77
2023-04-16T13:18:38.299Z,24.02
2023-04-16T13:21:05.117Z,21.65
2023-04-16T13:23:31.780Z,21.02
2023-04-16T13:25:58.477Z,25.25
2023-04-16T13:28:26.539Z,26.38
2023-04-16T13:30:54.589Z,21.98
2023-04-16T13:33:21.833Z,23.77
2023-04-16T13:35:52.903Z,23.08
2023-04-16T13:38:19.469Z,28.00
2023-04-16T13:40:46.193Z,22.67
2023-04-16T13:43:19.038Z,28.23
2023-04-16T13:45:46.241Z,27.25
2023-04-16T13:48:12.894Z,23.88
2023-04-16T13:50:39.500Z,24.75
2023-04-16T13:53:06.418Z,24.05
2023-04-16T13:55:33.098Z,23.35
2023-04-16T13:57:59.820Z,27.80
2023-04-16T14:00:27.443Z,24.35
2023-04-16T14:02:54.248Z,31.80
2023-04-16T14:05:21.064Z,27.92
2023-04-16T14:07:47.732Z,26.60
2023-04-16T14:10:20.250Z,28.17
2023-04-16T14:12:46.839Z,26.23
2023-04-16T14:15:14.926Z,21.88
2023-04-16T14:17:45.382Z,27.70
2023-04-16T14:20:13.769Z,23.02
2023-04-16T14:22:42.619Z,21.52
2023-04-16T14:25:09.432Z,25.08
2023-04-16T14:27:36.161Z,27.33
2023-04-16T14:30:02.790Z,32.92
2023-04-16T14:32:30.504Z,30.10
2023-04-16T14:34:57.474Z,23.67
2023-04-16T14:37:24.499Z,30.88
2023-04-16T14:39:51.169Z,26.25
2023-04-16T14:42:17.803Z,29.35
2023-04-16T14:44:44.729Z,28.10
2023-04-16T14:47:11.562Z,28.30
2023-04-16T14:49:38.280Z,24.67
2023-04-16T14:52:05.889Z,29.00
2023-04-16T14:54:33.613Z,29.45
2023-04-16T14:57:00.492Z,31.48
2023-04-16T14:59:27.251Z,25.77
2023-04-16T15:01:55.948Z,33.65
2023-04-16T15:04:22.793Z,39.60
2023-04-16T15:06:50.133Z,27.55
2023-04-16T15:09:16.847Z,33.28
2023-04-16T15:11:43.557Z,34.95
2023-04-16T15:14:10.458Z,33.30
2023-04-16T15:16:37.447Z,33.15
2023-04-16T15:19:05.078Z,30.65
2023-04-16T15:21:32.017Z,32.90
2023-04-16T15:23:59.339Z,30.52
2023-04-16T15:26:26.197Z,30.83
2023-04-16T15:28:53.056Z,36.13
2023-04-16T15:31:21.118Z,35.08
2023-04-16T15:33:48.883Z,35.83
2023-04-16T15:36:18.503Z,32.70
2023-04-16T15:38:48.185Z,32.33
2023-04-16T15:41:17.209Z,35.95
2023-04-16T15:43:43.939Z,35.58
2023-04-16T15:46:10.869Z,33.75
2023-04-16T15:48:37.590Z,34.72
2023-04-16T15:51:04.400Z,28.67
2023-04-16T15:53:31.208Z,36.35
2023-04-16T15:55:58.191Z,33.00
2023-04-16T15:58:24.843Z,28.70
2023-04-16T16:00:51.663Z,31.55
2023-04-16T16:03:18.696Z,31.77
2023-04-16T16:05:48.553Z,29.08
2023-04-16T16:08:16.059Z,25.10
2023-04-16T16:10:43.238Z,32.83
2023-04-16T16:13:13.214Z,31.33
2023-04-16T16:15:42.914Z,26.00
2023-04-16T16:18:10.026Z,31.75
2023-04-16T16:20:36.774Z,27.95
2023-04-16T16:23:03.586Z,30.05
2023-04-16T16:25:33.556Z,26.48
2023-04-16T16:28:00.606Z,23.17
2023-04-16T16:30:29.121Z,26.48
2023-04-16T16:32:55.898Z,22.90
2023-04-16T16:35:22.584Z,27.50
2023-04-16T16:37:49.467Z,21.77
2023-04-16T16:40:16.144Z,27.83
2023-04-16T16:42:42.839Z,22.33
2023-04-16T16:45:10.236Z,25.40
2023-04-16T16:47:36.813Z,32.22
2023-04-16T16:50:04.008Z,21.48
2023-04-16T16:52:30.764Z,25.10
2023-04-16T16:54:57.409Z,20.17
2023-04-16T16:57:24.920Z,22.50
2023-04-16T16:59:51.589Z,21.05
2023-04-16T17:02:18.668Z,22.95
2023-04-16T17:04:45.527Z,17.70
2023-04-16T17:07:12.331Z,23.30
2023-04-16T17:09:39.354Z,25.60
2023-04-16T17:12:06.622Z,24.83
2023-04-16T17:14:34.007Z,25.98
2023-04-16T17:17:00.790Z,25.23
2023-04-16T17:19:27.599Z,27.23
2023-04-16T17:21:54.297Z,22.90
2023-04-16T17:24:21.094Z,22.08
2023-04-16T17:26:47.690Z,20.95
2023-04-16T17:29:14.348Z,30.52
2023-04-16T17:31:41.218Z,22.52
2023-04-16T17:34:10.464Z,23.08
2023-04-16T17:36:37.331Z,19.98
2023-04-16T17:39:06.641Z,20.45
2023-04-16T17:41:33.308Z,20.45
2023-04-16T17:44:02.742Z,20.95
2023-04-16T17:46:29.418Z,25.25
2023-04-16T17:48:56.162Z,24.55
2023-04-16T17:51:22.806Z,28.77
2023-04-16T17:53:49.496Z,21.63
2023-04-16T17:56:16.473Z,21.42
2023-04-16T17:58:43.180Z,26.17
2023-04-16T18:01:09.951Z,21.67
2023-04-16T18:03:37.192Z,20.90
2023-04-16T18:06:04.475Z,25.60
2023-04-16T18:08:31.277Z,24.98
2023-04-16T18:10:58.052Z,23.25
2023-04-16T18:13:24.778Z,28.27
2023-04-16T18:15:51.838Z,25.25
2023-04-16T18:18:20.176Z,25.50
2023-04-16T18:20:46.805Z,22.75
2023-04-16T18:23:20.137Z,27.38
2023-04-16T18:25:48.838Z,29.63
2023-04-16T18:28:21.390Z,33.50
2023-04-16T18:35:53.692Z,37.83
2023-04-16T18:38:26.701Z,31.65
2023-04-16T18:41:02.690Z,35.67
2023-04-16T18:43:38.411Z,36.97
2023-04-16T18:46:35.744Z,35.30
2023-04-16T18:49:02.575Z,31.20
2023-04-16T18:51:31.717Z,37.05
2023-04-16T18:54:01.569Z,33.25
2023-04-16T18:56:34.251Z,38.05
2023-04-16T18:59:01.050Z,34.80
2023-04-16T19:01:28.037Z,36.83
2023-04-16T19:03:56.105Z,35.90
2023-04-16T19:06:22.970Z,37.97
2023-04-16T19:08:50.129Z,27.67
2023-04-16T19:11:19.396Z,30.90
2023-04-16T19:13:46.578Z,36.65
2023-04-16T19:16:13.457Z,27.58
2023-04-16T19:18:40.247Z,32.22
2023-04-16T19:21:13.563Z,36.30
2023-04-16T19:23:42.459Z,27.35
2023-04-16T19:26:12.468Z,31.83
2023-04-16T19:28:39.872Z,29.45
2023-04-16T19:31:06.638Z,31.67
2023-04-16T19:33:33.380Z,35.28
2023-04-16T19:36:00.513Z,30.67
2023-04-16T19:38:27.472Z,32.45
2023-04-16T19:40:54.185Z,30.58
2023-04-16T19:43:21.335Z,28.95
2023-04-16T19:45:53.437Z,39.17
2023-04-16T19:48:20.797Z,32.05
2023-04-16T19:50:48.095Z,34.42
2023-04-16T19:53:15.818Z,36.60
2023-04-16T19:55:43.160Z,36.83
2023-04-16T19:58:10.082Z,38.20
2023-04-16T20:00:38.898Z,35.47
2023-04-16T20:03:06.083Z,37.00
2023-04-16T20:05:32.741Z,40.83
2023-04-16T20:07:59.592Z,35.50
2023-04-16T20:10:26.616Z,39.03
2023-04-16T20:12:56.023Z,39.13
2023-04-16T20:15:22.715Z,45.55
2023-04-16T20:17:49.370Z,36.40
2023-04-16T20:20:16.674Z,40.67
2023-04-16T20:22:43.814Z,42.28
2023-04-16T20:25:10.587Z,39.67
2023-04-16T20:27:37.290Z,40.58
2023-04-16T20:30:05.499Z,40.47
2023-04-16T20:32:32.371Z,39.72
2023-04-16T20:34:59.813Z,42.08
2023-04-16T20:37:29.474Z,42.33
2023-04-16T20:39:56.437Z,42.83
2023-04-16T20:42:23.505Z,42.08
2023-04-16T20:44:56.592Z,45.60
2023-04-16T20:47:25.744Z,44.42
2023-04-16T20:49:52.892Z,42.50
2023-04-16T20:52:19.745Z,38.47
2023-04-16T20:54:47.218Z,42.45
2023-04-16T20:57:13.906Z,37.38
2023-04-16T20:59:40.478Z,40.85
2023-04-16T21:02:07.913Z,41.72
2023-04-16T21:04:34.727Z,45.13
2023-04-16T21:07:04.137Z,45.92
2023-04-16T21:09:31.535Z,42.75
2023-04-16T21:11:58.123Z,42.25
2023-04-16T21:14:24.708Z,41.65
2023-04-16T21:16:54.908Z,40.80
2023-04-16T21:19:24.385Z,46.80
2023-04-16T21:21:51.376Z,41.63
2023-04-16T21:24:17.985Z,40.20
2023-04-16T21:26:44.750Z,37.17
2023-04-16T21:29:11.635Z,35.72
2023-04-16T21:31:38.466Z,40.55
2023-04-16T21:34:05.275Z,44.05
2023-04-16T21:36:33.681Z,36.50
2023-04-16T21:39:00.327Z,43.80
2023-04-16T21:41:27.158Z,42.35
2023-04-16T21:43:53.809Z,39.75
2023-04-16T21:46:23.337Z,36.97
2023-04-16T21:48:49.956Z,41.30
2023-04-16T21:51:16.794Z,41.75
2023-04-16T21:53:43.508Z,39.58
2023-04-16T21:56:10.130Z,36.72
2023-04-16T21:58:36.833Z,38.80
2023-04-16T22:01:03.470Z,35.65
2023-04-16T22:03:31.128Z,40.97
2023-04-16T22:06:01.035Z,39.47
2023-04-16T22:08:31.424Z,36.70
2023-04-16T22:11:04.029Z,43.28
2023-04-16T22:13:32.452Z,46.57
2023-04-16T22:16:02.914Z,41.67
2023-04-16T22:18:33.076Z,39.30
2023-04-16T22:21:00.016Z,41.55
2023-04-16T22:23:26.633Z,39.60
2023-04-16T22:25:55.608Z,39.22
2023-04-16T22:28:22.828Z,46.08
2023-04-16T22:30:49.795Z,44.88
2023-04-16T22:33:16.550Z,52.45
2023-04-16T22:35:43.395Z,53.13
2023-04-16T22:38:10.452Z,52.38
2023-04-16T22:40:37.164Z,65.55
2023-04-16T22:43:03.772Z,54.92
2023-04-16T22:45:30.424Z,49.67
2023-04-16T22:47:57.037Z,44.85
2023-04-16T22:50:23.736Z,47.85
2023-04-16T22:52:50.391Z,43.60
2023-04-16T22:55:17.000Z,46.88
2023-04-16T22:57:43.555Z,52.13
2023-04-16T23:00:17.912Z,46.83
2023-04-16T23:02:45.197Z,40.83
2023-04-16T23:05:12.259Z,47.58
2023-04-16T23:07:38.961Z,43.92
2023-04-16T23:10:06.272Z,49.65
2023-04-16T23:12:32.922Z,49.35
2023-04-16T23:15:00.845Z,43.78
2023-04-16T23:17:28.119Z,46.83
2023-04-16T23:19:54.933Z,49.17
2023-04-16T23:22:21.554Z,47.42
2023-04-16T23:24:48.204Z,41.75
2023-04-16T23:27:16.153Z,49.05
2023-04-16T23:29:46.065Z,47.97
2023-04-16T23:32:12.888Z,45.90
2023-04-16T23:34:39.537Z,47.75
2023-04-16T23:37:06.172Z,48.45
2023-04-16T23:39:32.811Z,45.72
2023-04-16T23:41:59.781Z,50.80
2023-04-16T23:44:26.421Z,50.17
2023-04-16T23:46:53.227Z,53.92
2023-04-16T23:49:20.006Z,49.97
2023-04-16T23:51:46.616Z,49.38
2023-04-16T23:54:13.172Z,47.38
2023-04-16T23:56:39.869Z,54.50
2023-04-16T23:59:06.433Z,49.80
